createdAt,value
2022-09-21T00:00:54.598Z,102447.72
2022-09-21T00:03:26.481Z,102442.28
2022-09-21T00:06:06.131Z,102448.94
2022-09-21T00:08:38.321Z,102448.06
2022-09-21T00:11:19.443Z,102450.28
2022-09-21T00:13:55.534Z,102446.00
2022-09-21T00:16:28.507Z,102453.50
2022-09-21T00:19:00.962Z,102453.81
2022-09-21T00:21:33.112Z,102450.44
2022-09-21T00:24:06.532Z,102456.03
2022-09-21T00:26:38.488Z,102448.88
2022-09-21T00:29:10.584Z,102448.38
2022-09-21T00:31:42.660Z,102451.25
2022-09-21T00:34:14.516Z,102456.84
2022-09-21T00:36:46.391Z,102463.31
2022-09-21T00:39:18.295Z,102457.19
2022-09-21T00:41:53.570Z,102453.75
2022-09-21T00:44:34.105Z,102456.66
2022-09-21T00:47:17.119Z,102454.09
2022-09-21T00:49:50.956Z,102452.59
2022-09-21T00:52:24.509Z,102457.16
2022-09-21T00:54:59.567Z,102455.44
2022-09-21T00:57:32.051Z,102459.19
2022-09-21T01:00:08.600Z,102463.75
2022-09-21T01:02:40.989Z,102461.38
2022-09-21T01:05:12.860Z,102456.09
2022-09-21T01:07:46.465Z,102459.81
2022-09-21T01:10:21.712Z,102466.31
2022-09-21T01:13:08.572Z,102464.75
2022-09-21T01:16:05.822Z,102467.63
2022-09-21T01:18:52.431Z,102466.25
2022-09-21T01:21:26.646Z,102469.13
2022-09-21T01:24:17.216Z,102471.84
2022-09-21T01:27:16.993Z,102468.59
2022-09-21T01:29:59.972Z,102481.50
2022-09-21T01:32:39.385Z,102476.38
2022-09-21T01:35:17.526Z,102470.94
2022-09-21T01:38:02.212Z,102474.66
2022-09-21T01:40:41.435Z,102476.72
2022-09-21T01:43:18.335Z,102474.00
2022-09-21T01:45:52.180Z,102467.88
2022-09-21T01:48:24.731Z,102473.28
2022-09-21T01:50:58.334Z,102474.16
2022-09-21T01:53:37.756Z,102481.44
2022-09-21T01:56:24.407Z,102483.31
2022-09-21T01:59:20.481Z,102476.16
2022-09-21T02:01:59.845Z,102477.34
2022-09-21T02:04:35.177Z,102475.66
2022-09-21T02:07:08.798Z,102493.97
2022-09-21T02:09:41.329Z,102477.69
2022-09-21T02:12:18.183Z,102483.13
2022-09-21T02:14:55.464Z,102477.69
2022-09-21T02:17:54.622Z,102483.28
2022-09-21T02:20:39.377Z,102484.28
2022-09-21T02:23:25.204Z,102485.47
2022-09-21T02:26:02.205Z,102489.19
2022-09-21T02:28:49.285Z,102483.06
2022-09-21T02:31:49.074Z,102481.53
2022-09-21T02:34:33.367Z,102485.25
2022-09-21T02:37:15.344Z,102484.38
2022-09-21T02:40:00.503Z,102482.69
2022-09-21T02:42:34.945Z,102492.88
2022-09-21T02:45:11.801Z,102499.31
2022-09-21T02:47:59.891Z,102497.59
2022-09-21T02:50:36.734Z,102496.84
2022-09-21T02:53:10.865Z,102496.19
2022-09-21T02:55:45.278Z,102500.75
2022-09-21T02:58:18.227Z,102492.75
2022-09-21T03:00:51.005Z,102498.19
2022-09-21T03:03:24.895Z,102498.53
2022-09-21T03:05:56.780Z,102507.66
2022-09-21T03:08:28.875Z,102499.84
2022-09-21T03:11:00.983Z,102502.72
2022-09-21T03:13:33.104Z,102503.91
2022-09-21T03:16:07.404Z,102514.06
2022-09-21T03:18:40.289Z,102512.34
2022-09-21T03:21:12.625Z,102512.50
2022-09-21T03:23:44.690Z,102505.53
2022-09-21T03:26:16.826Z,102511.81
2022-09-21T03:28:49.950Z,102511.09
2022-09-21T03:31:22.591Z,102507.53
2022-09-21T03:33:54.834Z,102511.28
2022-09-21T03:36:26.956Z,102509.56
2022-09-21T03:38:58.822Z,102515.84
2022-09-21T03:41:30.609Z,102519.25
2022-09-21T03:44:02.597Z,102520.09
2022-09-21T03:46:35.319Z,102512.97
2022-09-21T03:49:07.410Z,102522.97
2022-09-21T03:51:39.653Z,102520.44
2022-09-21T03:54:11.705Z,102523.13
2022-09-21T03:56:43.619Z,102523.44
2022-09-21T03:59:15.408Z,102529.91
2022-09-21T04:01:49.197Z,102525.63
2022-09-21T04:04:21.620Z,102525.75
2022-09-21T04:06:53.410Z,102531.38
2022-09-21T04:09:25.361Z,102534.22
2022-09-21T04:11:57.178Z,102528.09
2022-09-21T04:14:29.826Z,102530.81
2022-09-21T04:17:01.650Z,102530.81
2022-09-21T04:19:33.474Z,102529.13
2022-09-21T04:22:05.305Z,102517.72
2022-09-21T04:24:37.227Z,102520.59
2022-09-21T04:27:10.204Z,102518.88
2022-09-21T04:29:42.424Z,102528.88
2022-09-21T04:32:14.324Z,102517.31
2022-09-21T04:34:46.196Z,102525.47
2022-09-21T04:37:18.724Z,102522.94
2022-09-21T04:39:50.560Z,102521.22
2022-09-21T04:42:23.313Z,102523.22
2022-09-21T04:44:56.122Z,102526.09
2022-09-21T04:47:32.509Z,102516.41
2022-09-21T04:50:04.924Z,102527.25
2022-09-21T04:52:36.913Z,102520.13
2022-09-21T04:55:09.286Z,102530.97
2022-09-21T04:57:41.185Z,102530.13
2022-09-21T05:00:13.338Z,102534.69
2022-09-21T05:02:45.159Z,102535.72
2022-09-21T05:05:17.147Z,102535.00
2022-09-21T05:07:49.036Z,102538.44
2022-09-21T05:10:20.883Z,102543.84
2022-09-21T05:12:52.725Z,102543.00
2022-09-21T05:15:24.780Z,102542.81
2022-09-21T05:17:56.737Z,102545.53
2022-09-21T05:20:29.544Z,102545.53
2022-09-21T05:23:02.279Z,102545.72
2022-09-21T05:25:34.606Z,102553.00
2022-09-21T05:28:06.843Z,102553.00
2022-09-21T05:30:44.670Z,102552.13
2022-09-21T05:33:30.489Z,102557.41
2022-09-21T05:36:30.229Z,102555.56
2022-09-21T05:39:02.339Z,102556.38
2022-09-21T05:41:34.737Z,102554.69
2022-09-21T05:44:07.181Z,102556.38
2022-09-21T05:47:12.624Z,102560.81
2022-09-21T05:50:30.632Z,102562.50
2022-09-21T05:53:20.395Z,102565.22
2022-09-21T05:55:56.772Z,102558.66
2022-09-21T05:59:17.106Z,102564.63
2022-09-21T06:02:19.319Z,102563.44
2022-09-21T06:04:52.107Z,102563.16
2022-09-21T06:07:24.045Z,102562.28
2022-09-21T06:09:55.940Z,102558.59
2022-09-21T06:12:27.968Z,102556.69
2022-09-21T06:14:59.810Z,102569.97
2022-09-21T06:17:32.532Z,102566.25
2022-09-21T06:20:06.614Z,102566.94
2022-09-21T06:22:38.481Z,102572.53
2022-09-21T06:25:10.615Z,102569.81
2022-09-21T06:27:42.521Z,102572.53
2022-09-21T06:30:14.501Z,102574.22
2022-09-21T06:32:46.697Z,102571.34
2022-09-21T06:35:18.814Z,102573.59
2022-09-21T06:37:50.769Z,102571.28
2022-09-21T06:40:22.759Z,102569.94
2022-09-21T06:43:01.377Z,102576.63
2022-09-21T06:45:33.753Z,102573.44
2022-09-21T06:48:05.590Z,102582.16
2022-09-21T06:50:38.287Z,102582.53
2022-09-21T06:53:10.402Z,102581.34
2022-09-21T06:55:42.522Z,102578.19
2022-09-21T06:58:14.457Z,102587.72
2022-09-21T07:00:46.523Z,102576.38
2022-09-21T07:03:18.867Z,102583.22
2022-09-21T07:05:51.325Z,102577.31
2022-09-21T07:11:16.206Z,102586.22
2022-09-21T07:13:48.022Z,102590.16
2022-09-21T07:16:19.962Z,102595.13
2022-09-21T07:18:51.893Z,102589.22
2022-09-21T07:21:23.810Z,102588.88
2022-09-21T07:23:56.643Z,102594.53
2022-09-21T07:26:28.905Z,102594.91
2022-09-21T07:29:00.947Z,102597.81
2022-09-21T07:31:32.887Z,102599.88
2022-09-21T07:34:04.943Z,102596.19
2022-09-21T07:36:36.930Z,102589.81
2022-09-21T07:39:09.845Z,102586.78
2022-09-21T07:41:42.131Z,102593.28
2022-09-21T07:44:14.104Z,102589.31
2022-09-21T07:46:48.880Z,102589.16
2022-09-21T07:49:20.765Z,102599.03
2022-09-21T07:51:53.039Z,102593.78
2022-09-21T07:54:24.901Z,102594.13
2022-09-21T07:57:15.343Z,102588.50
2022-09-21T07:59:47.360Z,102590.56
2022-09-21T08:02:19.212Z,102597.22
2022-09-21T08:04:52.309Z,102599.97
2022-09-21T08:07:24.852Z,102595.88
2022-09-21T08:09:56.875Z,102602.00
2022-09-21T08:12:28.735Z,102595.19
2022-09-21T08:15:00.718Z,102606.59
2022-09-21T08:17:32.626Z,102601.50
2022-09-21T08:20:04.970Z,102613.59
2022-09-21T08:22:36.813Z,102599.13
2022-09-21T08:25:10.648Z,102615.63
2022-09-21T08:27:43.137Z,102607.81
2022-09-21T08:30:15.269Z,102599.97
2022-09-21T08:32:51.472Z,102606.41
2022-09-21T08:35:24.236Z,102605.91
2022-09-21T08:37:56.178Z,102603.88
2022-09-21T08:40:28.592Z,102606.09
2022-09-21T08:43:07.845Z,102609.31
2022-09-21T08:45:45.436Z,102611.34
2022-09-21T08:48:29.084Z,102602.84
2022-09-21T08:51:06.139Z,102613.22
2022-09-21T08:53:41.548Z,102612.03
2022-09-21T08:56:15.841Z,102610.63
2022-09-21T08:58:47.857Z,102605.72
2022-09-21T09:01:19.745Z,102606.84
2022-09-21T09:04:22.603Z,102610.75
2022-09-21T09:06:54.540Z,102616.53
2022-09-21T09:10:14.362Z,102618.94
2022-09-21T09:13:02.366Z,102624.19
2022-09-21T09:15:56.127Z,102621.31
2022-09-21T09:18:50.212Z,102623.03
2022-09-21T09:21:32.187Z,102620.13
2022-09-21T09:24:11.291Z,102630.50
2022-09-21T09:26:50.628Z,102614.78
2022-09-21T09:29:34.212Z,102621.09
2022-09-21T09:32:12.164Z,102619.56
2022-09-21T09:35:01.965Z,102617.50
2022-09-21T09:37:36.770Z,102622.59
2022-09-21T09:40:12.710Z,102617.63
2022-09-21T09:43:03.953Z,102619.81
2022-09-21T09:46:07.044Z,102627.69
2022-09-21T09:49:06.752Z,102617.41
2022-09-21T09:51:39.819Z,102622.53
2022-09-21T09:54:34.983Z,102623.19
2022-09-21T09:57:07.327Z,102623.03
2022-09-21T10:00:03.836Z,102625.56
2022-09-21T10:03:17.177Z,102616.16
2022-09-21T10:05:49.253Z,102615.63
2022-09-21T10:08:39.222Z,102618.03
2022-09-21T10:11:13.150Z,102617.69
2022-09-21T10:13:49.137Z,102627.41
2022-09-21T10:16:22.735Z,102618.84
2022-09-21T10:19:21.183Z,102615.75
2022-09-21T10:22:17.524Z,102614.53
2022-09-21T10:25:19.492Z,102618.28
2022-09-21T10:28:12.096Z,102617.53
2022-09-21T10:31:19.290Z,102614.44
2022-09-21T10:34:14.607Z,102608.59
2022-09-21T10:37:28.214Z,102616.81
2022-09-21T10:40:20.081Z,102607.59
2022-09-21T10:43:35.926Z,102606.56
2022-09-21T10:46:34.300Z,102599.69
2022-09-21T10:49:27.975Z,102597.91
2022-09-21T10:52:21.478Z,102589.84
2022-09-21T10:55:20.649Z,102587.22
2022-09-21T10:58:14.739Z,102586.28
2022-09-21T11:01:16.257Z,102581.25
2022-09-21T11:04:16.867Z,102584.00
2022-09-21T11:07:32.455Z,102586.78
2022-09-21T11:10:41.345Z,102589.16
2022-09-21T11:13:37.884Z,102588.78
2022-09-21T11:16:41.775Z,102582.31
2022-09-21T11:19:42.106Z,102585.56
2022-09-21T11:22:36.291Z,102575.94
2022-09-21T11:25:32.612Z,102585.19
2022-09-21T11:28:31.600Z,102581.47
2022-09-21T11:31:40.034Z,102578.00
2022-09-21T11:34:56.429Z,102586.50
2022-09-21T11:37:51.290Z,102574.41
2022-09-21T11:40:58.206Z,102584.22
2022-09-21T11:43:55.490Z,102576.47
2022-09-21T11:47:05.525Z,102580.41
2022-09-21T11:50:31.415Z,102579.13
2022-09-21T11:53:29.178Z,102573.09
2022-09-21T11:56:31.471Z,102576.84
2022-09-21T11:59:37.158Z,102568.69
2022-09-21T12:03:07.344Z,102564.84
2022-09-21T12:06:22.338Z,102566.38
2022-09-21T12:09:26.087Z,102561.50
2022-09-21T12:12:31.686Z,102552.72
2022-09-21T12:15:32.281Z,102540.78
2022-09-21T12:18:28.851Z,102537.63
2022-09-21T12:21:26.090Z,102535.63
2022-09-21T12:24:46.319Z,102530.47
2022-09-21T12:27:57.067Z,102530.13
2022-09-21T12:30:51.446Z,102520.59
2022-09-21T12:33:47.688Z,102513.41
2022-09-21T12:36:43.113Z,102513.34
2022-09-21T12:40:05.877Z,102512.72
2022-09-21T12:43:03.013Z,102511.63
2022-09-21T12:45:59.579Z,102509.94
2022-09-21T12:48:50.111Z,102513.94
2022-09-21T12:51:44.246Z,102500.53
2022-09-21T12:54:45.281Z,102502.97
2022-09-21T12:58:14.040Z,102500.50
2022-09-21T13:01:23.222Z,102493.53
2022-09-21T13:04:22.983Z,102492.09
2022-09-21T13:07:25.437Z,102490.44
2022-09-21T13:10:20.120Z,102485.81
2022-09-21T13:14:06.801Z,102485.25
2022-09-21T13:17:02.989Z,102484.34
2022-09-21T13:20:03.984Z,102475.06
2022-09-21T13:23:01.218Z,102479.59
2022-09-21T13:26:04.343Z,102478.50
2022-09-21T13:28:54.238Z,102478.13
2022-09-21T13:31:41.747Z,102479.56
2022-09-21T13:34:25.176Z,102478.59
2022-09-21T13:37:15.783Z,102477.47
2022-09-21T13:40:16.226Z,102483.97
2022-09-21T13:42:48.873Z,102474.72
2022-09-21T13:45:22.904Z,102476.88
2022-09-21T13:48:00.250Z,102468.53
2022-09-21T13:50:39.177Z,102460.03
2022-09-21T13:53:40.968Z,102473.41
2022-09-21T13:56:20.271Z,102472.16
2022-09-21T13:58:53.963Z,102457.50
2022-09-21T14:01:49.964Z,102462.63
2022-09-21T14:04:28.673Z,102469.41
2022-09-21T14:07:05.035Z,102458.50
2022-09-21T14:09:40.942Z,102467.53
2022-09-21T14:12:19.797Z,102461.78
2022-09-21T14:15:12.818Z,102456.00
2022-09-21T14:17:45.775Z,102465.53
2022-09-21T14:20:35.898Z,102463.94
2022-09-21T14:23:16.506Z,102458.72
2022-09-21T14:25:51.750Z,102455.34
2022-09-21T14:28:38.347Z,102453.69
2022-09-21T14:31:22.592Z,102451.94
2022-09-21T14:33:56.280Z,102447.44
2022-09-21T14:36:38.406Z,102448.34
2022-09-21T14:39:19.972Z,102451.78
2022-09-21T14:41:55.459Z,102453.16
2022-09-21T14:44:33.155Z,102450.44
2022-09-21T14:47:25.465Z,102440.53
2022-09-21T14:50:15.341Z,102449.34
2022-09-21T14:53:34.470Z,102446.25
2022-09-21T14:56:22.530Z,102443.41
2022-09-21T14:59:15.818Z,102438.41
2022-09-21T15:01:58.178Z,102430.41
2022-09-21T15:05:08.460Z,102435.16
2022-09-21T15:08:10.726Z,102428.63
2022-09-21T15:10:56.679Z,102432.72
2022-09-21T15:14:11.241Z,102427.69
2022-09-21T15:16:48.762Z,102435.78
2022-09-21T15:19:28.757Z,102431.75
2022-09-21T15:22:20.983Z,102427.16
2022-09-21T15:24:55.646Z,102423.41
2022-09-21T15:27:33.013Z,102424.94
2022-09-21T15:30:07.496Z,102421.63
2022-09-21T15:32:42.550Z,102425.03
2022-09-21T15:35:32.646Z,102419.31
2022-09-21T15:38:04.569Z,102424.59
2022-09-21T15:40:47.060Z,102415.31
2022-09-21T15:43:20.992Z,102412.38
2022-09-21T15:45:59.306Z,102417.91
2022-09-21T15:48:35.120Z,102417.06
2022-09-21T15:51:23.413Z,102418.38
2022-09-21T15:54:07.819Z,102415.47
2022-09-21T15:56:43.437Z,102414.25
2022-09-21T15:59:18.123Z,102414.69
2022-09-21T16:01:53.422Z,102422.75
2022-09-21T16:04:27.300Z,102424.22
2022-09-21T16:07:02.880Z,102423.16
2022-09-21T16:09:42.764Z,102433.75
2022-09-21T16:12:26.384Z,102425.50
2022-09-21T16:15:07.164Z,102429.94
2022-09-21T16:17:39.093Z,102424.25
2022-09-21T16:20:19.773Z,102425.53
2022-09-21T16:22:54.879Z,102430.16
2022-09-21T16:25:34.153Z,102432.47
2022-09-21T16:28:26.475Z,102419.41
2022-09-21T16:30:59.178Z,102430.16
2022-09-21T16:33:57.354Z,102428.88
2022-09-21T16:36:32.359Z,102429.72
2022-09-21T16:39:12.786Z,102430.31
2022-09-21T16:42:01.089Z,102428.19
2022-09-21T16:44:40.882Z,102438.75
2022-09-21T16:47:25.400Z,102438.31
2022-09-21T16:50:01.559Z,102437.66
2022-09-21T16:52:33.587Z,102435.75
2022-09-21T16:55:06.212Z,102440.81
2022-09-21T16:57:38.453Z,102437.84
2022-09-21T17:00:14.536Z,102437.81
2022-09-21T17:02:48.299Z,102442.22
2022-09-21T17:05:20.706Z,102438.59
2022-09-21T17:07:55.229Z,102443.03
2022-09-21T17:10:31.851Z,102442.38
2022-09-21T17:13:07.304Z,102443.84
2022-09-21T17:15:44.920Z,102446.97
2022-09-21T17:18:17.074Z,102450.97
2022-09-21T17:20:49.555Z,102447.34
2022-09-21T17:23:27.556Z,102441.41
2022-09-21T17:25:59.585Z,102445.59
2022-09-21T17:28:32.549Z,102443.47
2022-09-21T17:31:07.158Z,102443.84
2022-09-21T17:33:39.386Z,102450.97
2022-09-21T17:36:14.485Z,102446.75
2022-09-21T17:38:46.830Z,102447.19
2022-09-21T17:41:23.673Z,102437.63
2022-09-21T17:44:10.717Z,102436.16
2022-09-21T17:46:50.254Z,102445.63
2022-09-21T17:49:22.385Z,102440.72
2022-09-21T17:52:13.124Z,102436.72
2022-09-21T17:54:45.670Z,102440.25
2022-09-21T17:57:20.428Z,102440.84
2022-09-21T18:00:04.312Z,102444.00
2022-09-21T18:02:37.629Z,102453.66
2022-09-21T18:05:18.503Z,102450.66
2022-09-21T18:07:51.831Z,102446.81
2022-09-21T18:10:26.238Z,102446.38
2022-09-21T18:13:33.254Z,102442.97
2022-09-21T18:16:16.800Z,102454.34
2022-09-21T18:19:00.818Z,102448.41
2022-09-21T18:21:35.744Z,102452.38
2022-09-21T18:24:15.160Z,102456.34
2022-09-21T18:26:48.964Z,102462.44
2022-09-21T18:29:41.751Z,102454.78
2022-09-21T18:32:14.570Z,102459.97
2022-09-21T18:35:15.082Z,102463.13
2022-09-21T18:37:59.516Z,102463.72
2022-09-21T18:40:42.921Z,102462.38
2022-09-21T18:43:22.654Z,102463.81
2022-09-21T18:46:38.364Z,102463.56
2022-09-21T18:49:40.865Z,102469.81
2022-09-21T18:52:38.992Z,102466.16
2022-09-21T18:55:32.810Z,102462.47
2022-09-21T18:58:04.915Z,102460.28
2022-09-21T19:00:37.049Z,102461.41
2022-09-21T19:03:19.075Z,102458.38
2022-09-21T19:06:06.470Z,102460.47
2022-09-21T19:08:59.436Z,102459.81
2022-09-21T19:11:36.981Z,102462.94
2022-09-21T19:14:24.213Z,102461.63
2022-09-21T19:17:17.753Z,102455.50
2022-09-21T19:20:12.359Z,102462.38
2022-09-21T19:23:04.184Z,102468.19
2022-09-21T19:25:51.468Z,102472.34
2022-09-21T19:28:32.961Z,102467.25
2022-09-21T19:31:13.895Z,102466.31
2022-09-21T19:33:51.327Z,102480.09
2022-09-21T19:36:24.282Z,102476.22
2022-09-21T19:38:56.837Z,102478.84
2022-09-21T19:41:31.434Z,102475.63
2022-09-21T19:44:04.797Z,102489.47
2022-09-21T19:47:00.561Z,102487.81
2022-09-21T19:49:55.371Z,102478.56
2022-09-21T19:52:33.450Z,102482.53
2022-09-21T19:55:31.122Z,102483.72
2022-09-21T19:58:22.643Z,102486.16
2022-09-21T20:00:57.039Z,102489.28
2022-09-21T20:03:49.384Z,102486.72
2022-09-21T20:06:29.500Z,102490.69
2022-09-21T20:09:07.674Z,102491.03
2022-09-21T20:12:09.212Z,102497.06
2022-09-21T20:14:47.275Z,102491.13
2022-09-21T20:17:24.946Z,102497.84
2022-09-21T20:20:08.495Z,102496.47
2022-09-21T20:22:41.352Z,102490.53
2022-09-21T20:25:20.594Z,102501.84
2022-09-21T20:27:55.929Z,102500.53
2022-09-21T20:30:33.564Z,102497.09
2022-09-21T20:33:14.973Z,102497.09
2022-09-21T20:35:47.090Z,102491.81
2022-09-21T20:38:19.039Z,102486.56
2022-09-21T20:40:51.724Z,102497.50
2022-09-21T20:43:29.021Z,102495.78
2022-09-21T20:46:04.011Z,102500.56
2022-09-21T20:48:37.008Z,102498.22
2022-09-21T20:51:10.181Z,102501.97
2022-09-21T20:53:42.221Z,102498.56
2022-09-21T20:56:14.428Z,102500.44
2022-09-21T20:58:46.302Z,102496.88
2022-09-21T21:01:18.201Z,102496.88
2022-09-21T21:03:50.909Z,102499.75
2022-09-21T21:06:23.276Z,102498.06
2022-09-21T21:08:55.121Z,102498.22
2022-09-21T21:11:28.000Z,102493.13
2022-09-21T21:13:59.938Z,102495.19
2022-09-21T21:16:32.260Z,102498.97
2022-09-21T21:19:04.826Z,102497.28
2022-09-21T21:21:36.684Z,102500.34
2022-09-21T21:24:26.897Z,102498.84
2022-09-21T21:27:02.202Z,102509.06
2022-09-21T21:29:35.089Z,102508.44
2022-09-21T21:32:07.049Z,102498.69
2022-09-21T21:34:38.986Z,102506.03
2022-09-21T21:37:12.588Z,102511.69
2022-09-21T21:39:44.633Z,102504.53
2022-09-21T21:42:16.677Z,102503.84
2022-09-21T21:44:50.417Z,102499.63
2022-09-21T21:50:14.591Z,102503.75
2022-09-21T21:52:46.576Z,102497.59
2022-09-21T21:55:18.449Z,102499.84
2022-09-21T21:57:51.308Z,102498.16
2022-09-21T22:00:23.300Z,102494.75
2022-09-21T22:02:57.936Z,102494.09
2022-09-21T22:05:29.713Z,102490.50
2022-09-21T22:08:01.718Z,102498.84
2022-09-21T22:10:34.711Z,102491.69
2022-09-21T22:13:07.056Z,102491.03
2022-09-21T22:15:38.964Z,102489.34
2022-09-21T22:18:11.177Z,102494.09
2022-09-21T22:20:43.585Z,102486.97
2022-09-21T22:23:15.417Z,102485.28
2022-09-21T22:25:47.237Z,102490.22
2022-09-21T22:28:19.095Z,102491.44
2022-09-21T22:30:51.159Z,102488.03
2022-09-21T22:33:22.990Z,102492.63
2022-09-21T22:35:54.841Z,102497.44
2022-09-21T22:38:29.728Z,102499.47
2022-09-21T22:41:03.380Z,102492.50
2022-09-21T22:43:35.441Z,102500.00
2022-09-21T22:46:07.688Z,102499.16
2022-09-21T22:48:39.646Z,102507.34
2022-09-21T22:51:12.738Z,102491.16
2022-09-21T22:53:45.056Z,102499.53
2022-09-21T22:56:19.921Z,102500.38
2022-09-21T22:58:54.143Z,102490.66
2022-09-21T23:01:28.838Z,102498.19
2022-09-21T23:04:03.903Z,102486.75
2022-09-21T23:06:37.946Z,102490.69
2022-09-21T23:09:14.485Z,102487.47
2022-09-21T23:11:53.513Z,102481.50
2022-09-21T23:14:25.636Z,102483.75
2022-09-21T23:16:57.428Z,102480.69
2022-09-21T23:19:29.342Z,102483.78
2022-09-21T23:22:01.240Z,102480.38
2022-09-21T23:24:33.073Z,102474.41
2022-09-21T23:27:05.327Z,102468.47
2022-09-21T23:29:37.185Z,102473.91
2022-09-21T23:32:09.030Z,102469.81
2022-09-21T23:34:40.829Z,102469.16
2022-09-21T23:37:12.755Z,102464.22
2022-09-21T23:39:44.595Z,102467.28
2022-09-21T23:42:17.147Z,102465.78
2022-09-21T23:44:49.005Z,102460.66
2022-09-21T23:47:20.853Z,102463.75
2022-09-21T23:49:52.635Z,102464.09
2022-09-21T23:52:24.773Z,102466.13
2022-09-21T23:54:56.671Z,102461.06
2022-09-21T23:57:28.463Z,102464.78
